Time;durP1;ratioP1;P1;durP2;ratioP2;P2;SDS_P1;SDS_P2;PMS_P1;PMS_P2;Temp;Humidity;BMP_temperature;BMP_pressure;BME280_temperature;BME280_humidity;BME280_pressure;Samples;Min_cycle;Max_cycle;Signal;HPM_P1;HPM_P2
2024/04/17 00:01:03;;;;;;;5.50;4.20;;;;;;;6.34;58.44;97663.65;103144;1292;545760;-76
2024/04/17 00:04:57;;;;;;;4.90;4.40;;;;;;;6.31;58.60;97662.25;103222;1293;545686;-76
2024/04/17 00:08:34;;;;;;;5.40;4.90;;;;;;;6.23;58.86;97661.34;103033;1294;545302;-76
2024/04/17 00:12:11;;;;;;;5.40;4.90;;;;;;;6.18;59.07;97658.69;102892;1295;544802;-77
2024/04/17 00:15:47;;;;;;;6.10;5.50;;;;;;;6.12;59.37;97667.91;103045;1295;544839;-77
2024/04/17 00:19:27;;;;;;;6.60;6.00;;;;;;;6.07;59.70;97666.84;103167;1294;545259;-76
2024/04/17 00:23:09;;;;;;;6.50;5.90;;;;;;;6.01;59.79;97666.98;103455;1296;544796;-76
2024/04/17 00:26:49;;;;;;;6.50;5.90;;;;;;;5.98;60.04;97666.50;103076;1295;544796;-76
2024/04/17 00:30:27;;;;;;;6.40;5.80;;;;;;;5.96;60.25;97668.18;103041;1295;544805;-77
2024/04/17 00:34:00;;;;;;;6.60;6.00;;;;;;;5.91;60.65;97663.91;103077;1295;544801;-78
2024/04/17 00:37:42;;;;;;;6.20;5.60;;;;;;;5.90;60.68;97673.42;103226;1292;545500;-76
2024/04/17 00:41:18;;;;;;;6.90;6.30;;;;;;;5.94;61.03;97673.16;102999;1306;544855;-75
2024/04/17 00:44:59;;;;;;;6.90;6.10;;;;;;;6.04;61.24;97673.84;103054;1296;544888;-75
2024/04/17 00:48:39;;;;;;;8.70;6.70;;;;;;;6.12;61.37;97673.13;103197;1294;544782;-75
2024/04/17 00:52:17;;;;;;;7.00;6.10;;;;;;;6.19;61.55;97669.08;103333;1292;544884;-77
2024/04/17 00:55:56;;;;;;;7.10;5.90;;;;;;;6.27;61.85;97671.25;103041;1295;545149;-75
2024/04/17 00:59:32;;;;;;;6.30;5.70;;;;;;;6.30;61.83;97676.09;103625;1289;545114;-76
2024/04/17 01:03:10;;;;;;;5.70;5.20;;;;;;;6.33;62.18;97669.48;103491;1290;546163;-76
2024/04/17 01:06:47;;;;;;;7.30;6.20;;;;;;;6.35;62.37;97681.23;103141;1294;546017;-76
2024/04/17 01:10:23;;;;;;;6.60;6.00;;;;;;;6.30;62.37;97674.52;102960;1302;545501;-77
2024/04/17 01:13:59;;;;;;;6.90;6.30;;;;;;;6.25;62.41;97681.64;103010;1298;545037;-77
2024/04/17 01:17:42;;;;;;;6.40;5.70;;;;;;;6.21;62.51;97679.23;103078;1295;544837;-77
2024/04/17 01:21:19;;;;;;;13.10;4.70;;;;;;;6.13;62.65;97694.18;103144;1295;544848;-77
2024/04/17 01:24:57;;;;;;;5.40;4.00;;;;;;;5.97;62.81;97683.82;103037;1295;545927;-77
2024/04/17 01:28:35;;;;;;;4.50;3.40;;;;;;;5.87;62.98;97690.99;103085;1292;544947;-78
2024/04/17 01:32:16;;;;;;;3.50;3.20;;;;;;;5.81;62.89;97698.16;103152;1292;545091;-76
2024/04/17 01:35:52;;;;;;;3.20;2.60;;;;;;;5.79;62.61;97698.09;103417;1293;544841;-75
2024/04/17 01:39:28;;;;;;;3.00;2.70;;;;;;;5.74;62.69;97703.39;103286;1292;544870;-76
2024/04/17 01:43:06;;;;;;;3.50;3.00;;;;;;;5.62;62.83;97718.23;102959;1296;544885;-76
2024/04/17 01:46:45;;;;;;;4.20;2.90;;;;;;;5.51;62.76;97707.46;103199;1315;545105;-76
2024/04/17 01:50:28;;;;;;;6.70;2.90;;;;;;;5.47;62.82;97708.23;103272;1296;545870;-77
2024/04/17 01:53:59;;;;;;;3.20;2.60;;;;;;;5.48;62.77;97718.32;102918;1299;544947;-76
2024/04/17 01:57:34;;;;;;;3.00;2.40;;;;;;;5.48;62.99;97723.84;103034;1294;545345;-75
2024/04/17 02:01:18;;;;;;;2.70;2.30;;;;;;;5.43;62.86;97728.51;103143;1293;544755;-74
2024/04/17 02:04:56;;;;;;;3.20;2.40;;;;;;;5.39;62.78;97733.27;103109;1297;544741;-74
2024/04/17 02:08:32;;;;;;;2.90;2.60;;;;;;;5.33;62.83;97730.98;103119;1292;545010;-75
2024/04/17 02:12:09;;;;;;;3.10;2.30;;;;;;;5.34;62.94;97728.67;103045;1295;545922;-74
2024/04/17 02:15:47;;;;;;;3.50;3.00;;;;;;;5.32;62.93;97734.92;103016;1293;545283;-76
2024/04/17 02:19:26;;;;;;;2.60;2.40;;;;;;;5.28;63.07;97741.55;103551;1301;545084;-74
2024/04/17 02:23:04;;;;;;;3.70;3.10;;;;;;;5.29;63.43;97742.73;103110;1298;545606;-73
2024/04/17 02:26:38;;;;;;;4.60;3.10;;;;;;;5.28;63.41;97742.61;103128;1296;544769;-75
2024/04/17 02:30:18;;;;;;;4.40;2.70;;;;;;;5.32;63.79;97749.19;103182;1292;544975;-74
2024/04/17 02:33:58;;;;;;;4.50;3.60;;;;;;;5.34;63.77;97747.14;103018;1298;544833;-74
2024/04/17 02:37:38;;;;;;;5.90;3.90;;;;;;;5.36;63.78;97752.99;103274;1297;544810;-73
2024/04/17 02:41:18;;;;;;;3.70;3.40;;;;;;;5.38;64.03;97754.04;103159;1294;544844;-73
2024/04/17 02:45:00;;;;;;;4.70;3.60;;;;;;;5.40;63.98;97752.77;103152;1292;545559;-74
2024/04/17 02:48:39;;;;;;;3.90;3.30;;;;;;;5.41;63.98;97761.03;103046;1296;544773;-74
2024/04/17 02:52:17;;;;;;;2.90;2.70;;;;;;;5.39;64.00;97761.89;104469;1281;545578;-74
2024/04/17 02:55:51;;;;;;;4.40;2.90;;;;;;;5.42;64.05;97768.98;103078;1295;544703;-74
2024/04/17 02:59:34;;;;;;;3.60;3.00;;;;;;;5.40;63.99;97776.81;103497;1292;545421;-74
2024/04/17 03:03:12;;;;;;;3.90;2.50;;;;;;;5.40;64.05;97778.19;103155;1295;545076;-74
2024/04/17 03:06:46;;;;;;;5.00;2.80;;;;;;;5.39;63.92;97779.49;103124;1296;545338;-74
2024/04/17 03:10:28;;;;;;;5.30;3.30;;;;;;;5.42;64.06;97778.78;103085;1296;544836;-74
2024/04/17 03:14:07;;;;;;;3.30;3.00;;;;;;;5.44;63.97;97777.62;103026;1295;544976;-73
2024/04/17 03:17:45;;;;;;;7.00;3.50;;;;;;;5.44;63.96;97773.40;103571;1295;544875;-74
2024/04/17 03:21:19;;;;;;;5.20;3.20;;;;;;;5.49;63.99;97783.10;103630;1313;544834;-74
2024/04/17 03:25:01;;;;;;;3.40;3.10;;;;;;;5.54;63.84;97783.33;103038;1295;544871;-74
2024/04/17 03:28:41;;;;;;;5.20;2.90;;;;;;;5.59;63.72;97784.65;102987;1295;546132;-74
2024/04/17 03:32:18;;;;;;;5.10;3.00;;;;;;;5.60;63.63;97790.88;103084;1295;546470;-74
2024/04/17 03:35:59;;;;;;;4.20;2.80;;;;;;;5.60;63.57;97789.45;103013;1299;544820;-74
2024/04/17 03:39:32;;;;;;;4.00;2.80;;;;;;;5.62;63.61;97793.38;103007;1292;545448;-75
2024/04/17 03:43:11;;;;;;;2.90;2.50;;;;;;;5.69;63.27;97795.80;103012;1308;544982;-74
2024/04/17 03:46:49;;;;;;;2.90;2.60;;;;;;;5.72;63.38;97801.57;103522;1293;545076;-76
2024/04/17 03:50:25;;;;;;;3.20;2.50;;;;;;;5.77;63.32;97804.25;103021;1296;544755;-76
2024/04/17 03:54:01;;;;;;;3.00;2.70;;;;;;;5.78;63.25;97806.10;103125;1296;544816;-76
2024/04/17 03:57:43;;;;;;;3.70;2.70;;;;;;;5.80;63.36;97813.49;103444;1294;544803;-76
2024/04/17 04:01:18;;;;;;;3.00;2.50;;;;;;;5.83;63.26;97811.44;103089;1306;544730;-75
2024/04/17 04:04:58;;;;;;;2.80;2.60;;;;;;;5.88;63.32;97810.80;103204;1296;544832;-75
2024/04/17 04:08:41;;;;;;;3.80;2.80;;;;;;;5.88;63.36;97819.86;103223;1296;545052;-74
2024/04/17 04:12:19;;;;;;;4.30;2.90;;;;;;;5.90;63.35;97820.30;102970;1295;545022;-73
2024/04/17 04:15:54;;;;;;;3.60;2.80;;;;;;;5.90;63.46;97819.23;103070;1302;544793;-74
2024/04/17 04:19:34;;;;;;;5.20;3.30;;;;;;;5.91;63.33;97824.58;103470;1291;544927;-74
2024/04/17 04:23:18;;;;;;;3.60;3.30;;;;;;;5.90;63.50;97827.95;103416;1292;545883;-74
2024/04/17 04:26:58;;;;;;;7.90;3.60;;;;;;;5.90;63.55;97838.11;103543;1291;545031;-76
2024/04/17 04:30:39;;;;;;;5.40;4.10;;;;;;;5.89;63.46;97840.42;103169;1293;545930;-74
2024/04/17 04:34:11;;;;;;;4.50;4.10;;;;;;;5.89;63.53;97842.13;103107;1293;544947;-74
2024/04/17 04:37:47;;;;;;;3.90;3.50;;;;;;;5.93;63.50;97847.70;103501;1298;545322;-75
2024/04/17 04:41:31;;;;;;;6.30;4.10;;;;;;;5.95;63.60;97849.51;103180;1315;545277;-76
2024/04/17 04:45:09;;;;;;;4.20;3.60;;;;;;;6.02;63.65;97854.01;103200;1295;544816;-74
2024/04/17 04:48:43;;;;;;;5.60;4.10;;;;;;;6.06;63.59;97851.33;103311;1292;544831;-76
2024/04/17 04:52:24;;;;;;;6.00;3.90;;;;;;;6.04;63.56;97860.52;103349;1293;544786;-77
2024/04/17 04:56:05;;;;;;;8.30;3.90;;;;;;;6.03;63.69;97865.09;103527;1294;545307;-75
2024/04/17 04:59:41;;;;;;;3.40;3.10;;;;;;;6.04;63.54;97862.80;103143;1296;545169;-75
2024/04/17 05:03:18;;;;;;;4.20;2.50;;;;;;;6.03;63.79;97863.72;103396;1296;545442;-78
2024/04/17 05:06:53;;;;;;;5.40;3.10;;;;;;;6.09;65.06;97863.04;103682;1299;544838;-81
2024/04/17 05:10:35;;;;;;;3.20;2.50;;;;;;;6.46;65.76;97864.96;104258;1299;544947;-81
2024/04/17 05:24:40;;;;;;;2.50;2.30;;;;;;;6.90;65.00;97867.77;103878;1292;554178;-78
2024/04/17 05:27:31;;;;;;;5.40;2.00;;;;;;;7.17;65.73;97868.83;103342;1293;544839;-78
2024/04/17 05:31:10;;;;;;;3.10;2.00;;;;;;;7.20;65.19;97875.59;103304;1292;545001;-77
2024/04/17 05:34:46;;;;;;;2.30;1.90;;;;;;;7.10;65.48;97885.98;103147;1295;544858;-78
2024/04/17 05:38:24;;;;;;;3.80;2.20;;;;;;;7.04;65.51;97891.05;103396;1295;544927;-81
2024/04/17 05:42:02;;;;;;;3.50;2.20;;;;;;;6.95;64.70;97897.55;103102;1296;544830;-78
2024/04/17 05:45:44;;;;;;;7.60;2.20;;;;;;;6.71;64.84;97902.85;103160;1295;545143;-80
2024/04/17 05:49:19;;;;;;;4.00;2.40;;;;;;;6.59;64.90;97902.99;103637;1292;545531;-77
2024/04/17 05:52:59;;;;;;;4.00;2.60;;;;;;;6.41;65.02;97905.71;103427;1295;547226;-78
2024/04/17 05:56:32;;;;;;;8.20;2.40;;;;;;;6.32;64.98;97904.49;103086;1301;545471;-78
2024/04/17 06:00:12;;;;;;;11.00;2.80;;;;;;;6.24;65.20;97901.44;103525;1293;545066;-77
2024/04/17 06:03:50;;;;;;;4.00;2.50;;;;;;;6.22;65.20;97910.28;103513;1292;544972;-77
2024/04/17 06:07:28;;;;;;;7.30;2.80;;;;;;;6.19;65.32;97914.12;103028;1294;545628;-78
2024/04/17 06:11:02;;;;;;;5.60;3.10;;;;;;;6.24;65.54;97910.20;103302;1292;544799;-78
2024/04/17 06:14:46;;;;;;;6.40;3.30;;;;;;;6.20;65.50;97915.69;103254;1293;545404;-78
2024/04/17 06:18:22;;;;;;;4.00;3.00;;;;;;;6.18;65.90;97911.73;103506;1292;545611;-79
2024/04/17 06:21:58;;;;;;;8.60;3.60;;;;;;;6.26;65.90;97915.48;103280;1293;544856;-76
2024/04/17 06:25:42;;;;;;;4.30;3.90;;;;;;;6.19;66.14;97912.90;103303;1293;545498;-78
2024/04/17 06:29:18;;;;;;;6.60;3.80;;;;;;;6.26;66.28;97916.86;103081;1294;544735;-78
2024/04/17 06:33:17;;;;;;;7.20;4.30;;;;;;;6.37;66.55;97927.77;103065;1297;553271;-77
2024/04/17 06:36:34;;;;;;;5.40;4.20;;;;;;;6.33;66.72;97924.52;103423;1292;544878;-77
2024/04/17 06:40:11;;;;;;;6.10;4.80;;;;;;;6.26;66.81;97927.17;103183;1298;544892;-78
2024/04/17 06:43:49;;;;;;;4.80;4.30;;;;;;;6.17;67.19;97927.70;103288;1291;544768;-78
2024/04/17 06:47:29;;;;;;;4.80;4.40;;;;;;;6.19;67.43;97940.14;103264;1295;545801;-78
2024/04/17 06:51:06;;;;;;;5.90;4.60;;;;;;;6.13;67.54;97946.91;104320;1282;546260;-81
2024/04/17 06:54:42;;;;;;;5.00;4.60;;;;;;;6.21;67.85;97949.29;103130;1295;544824;-78
2024/04/17 06:58:18;;;;;;;7.80;4.80;;;;;;;6.22;67.80;97945.91;103527;1293;544939;-81
2024/04/17 07:02:02;;;;;;;5.60;4.90;;;;;;;6.24;68.05;97952.42;103420;1292;544916;-79
2024/04/17 07:05:42;;;;;;;5.80;4.80;;;;;;;6.15;68.02;97952.23;103082;1298;545054;-78
2024/04/17 07:09:16;;;;;;;5.10;4.60;;;;;;;6.07;68.36;97951.07;103438;1292;544971;-74
2024/04/17 07:12:53;;;;;;;5.90;5.00;;;;;;;6.03;68.35;97955.13;103001;1298;544898;-73
2024/04/17 07:16:33;;;;;;;5.70;5.10;;;;;;;6.06;68.66;97960.41;103158;1295;545076;-74
2024/04/17 07:20:13;;;;;;;4.80;4.30;;;;;;;6.13;68.56;97959.30;103051;1295;544782;-73
2024/04/17 07:23:45;;;;;;;4.90;4.50;;;;;;;6.05;68.68;97963.05;103330;1294;544965;-75
2024/04/17 07:27:28;;;;;;;5.10;4.60;;;;;;;5.96;68.93;97965.30;103622;1292;544988;-75
2024/04/17 07:31:06;;;;;;;4.70;4.30;;;;;;;6.02;69.19;97972.98;103290;1294;544771;-74
2024/04/17 07:34:42;;;;;;;6.50;4.10;;;;;;;6.08;69.22;97977.22;103439;1299;544845;-75
2024/04/17 07:38:18;;;;;;;4.50;4.00;;;;;;;6.11;69.30;97970.03;103558;1294;545549;-74
2024/04/17 07:42:00;;;;;;;4.80;4.20;;;;;;;6.07;69.08;97974.30;103043;1299;545286;-74
2024/04/17 07:45:37;;;;;;;4.20;3.40;;;;;;;6.04;69.38;97985.64;103163;1292;544807;-75
2024/04/17 07:49:16;;;;;;;4.60;4.10;;;;;;;5.98;69.48;97988.77;103003;1296;545751;-76
2024/04/17 07:52:53;;;;;;;4.20;3.80;;;;;;;5.92;69.68;97988.37;103644;1294;545701;-82
2024/04/17 07:56:33;;;;;;;4.20;3.90;;;;;;;5.96;70.18;98001.23;104492;1298;544869;-81
2024/04/17 08:00:09;;;;;;;4.40;4.10;;;;;;;6.01;70.11;97999.78;103885;1298;544823;-82
2024/04/17 08:03:46;;;;;;;4.40;3.90;;;;;;;6.13;70.29;98007.48;103736;1292;544779;-81
2024/04/17 08:07:22;;;;;;;4.70;4.40;;;;;;;6.11;70.17;98009.69;103694;1295;544973;-81
2024/04/17 08:11:02;;;;;;;4.20;3.90;;;;;;;6.16;70.40;98013.61;103907;1297;544754;-80
2024/04/17 08:14:46;;;;;;;6.60;5.00;;;;;;;6.14;70.48;98017.38;104319;1286;545269;-81
2024/04/17 08:18:22;;;;;;;4.90;4.50;;;;;;;6.18;70.60;98019.29;104117;1293;545375;-81
2024/04/17 08:22:00;;;;;;;6.00;5.40;;;;;;;6.14;70.80;98024.52;103564;1294;545329;-81
2024/04/17 08:25:39;;;;;;;5.80;5.30;;;;;;;6.22;70.84;98029.02;103402;1295;545570;-82
2024/04/17 08:29:17;;;;;;;5.60;5.10;;;;;;;6.31;70.68;98034.45;103585;1297;545549;-81
2024/04/17 08:32:51;;;;;;;4.80;4.40;;;;;;;6.30;70.57;98038.52;103401;1295;545449;-82
2024/04/17 08:36:36;;;;;;;4.90;4.50;;;;;;;6.40;70.74;98044.09;103992;1289;545511;-82
2024/04/17 08:40:14;;;;;;;6.20;4.20;;;;;;;6.35;70.57;98053.45;103785;1289;544900;-82
2024/04/17 08:43:51;;;;;;;5.20;4.70;;;;;;;6.35;70.71;98045.38;103300;1294;544806;-82
2024/04/17 08:47:28;;;;;;;7.30;5.00;;;;;;;6.42;70.70;98052.02;103229;1292;545977;-82
2024/04/17 08:51:10;;;;;;;4.20;3.90;;;;;;;6.46;70.83;98055.29;103340;1299;545496;-81
2024/04/17 08:54:46;;;;;;;4.20;3.80;;;;;;;6.50;70.73;98054.57;104395;1285;544933;-82
2024/04/17 08:58:20;;;;;;;4.20;3.80;;;;;;;6.39;70.54;98065.60;103634;1295;545441;-82
2024/04/17 09:02:02;;;;;;;4.50;3.90;;;;;;;6.27;70.83;98069.94;104001;1291;544892;-81
2024/04/17 09:05:34;;;;;;;5.00;3.90;;;;;;;6.41;71.06;98069.70;104287;1295;544995;-82
2024/04/17 09:09:19;;;;;;;3.80;3.40;;;;;;;6.65;71.18;98070.33;103440;1299;544873;-75
2024/04/17 09:13:03;;;;;;;3.20;2.20;;;;;;;6.89;71.10;98066.38;104045;1289;545006;-75
2024/04/17 09:16:39;;;;;;;3.10;1.90;;;;;;;6.96;70.85;98064.91;103207;1293;545097;-76
2024/04/17 09:20:23;;;;;;;3.40;2.60;;;;;;;7.07;70.77;98072.00;103039;1295;544785;-74
2024/04/17 09:23:57;;;;;;;3.60;3.20;;;;;;;7.06;70.88;98075.38;103131;1298;545756;-76
2024/04/17 09:27:40;;;;;;;2.50;2.40;;;;;;;6.92;70.52;98076.00;103108;1302;545610;-76
2024/04/17 09:31:17;;;;;;;3.70;2.90;;;;;;;6.86;70.50;98090.84;103880;1286;544952;-75
2024/04/17 09:34:55;;;;;;;4.20;3.30;;;;;;;6.84;70.89;98097.77;103073;1296;546380;-75
2024/04/17 09:38:31;;;;;;;4.20;3.40;;;;;;;6.90;70.83;98102.65;103414;1292;545139;-76
2024/04/17 09:52:45;;;;;;;4.90;3.30;;;;;;;6.86;70.24;98107.41;104019;1288;553831;-74
2024/04/17 09:55:29;;;;;;;3.90;3.50;;;;;;;6.80;70.44;98119.10;103261;1292;545466;-75
2024/04/17 09:59:07;;;;;;;5.80;3.60;;;;;;;6.69;70.37;98126.88;103522;1295;544832;-75
2024/04/17 10:02:44;;;;;;;3.60;2.80;;;;;;;6.42;70.61;98119.75;103116;1292;545808;-75
2024/04/17 10:06:23;;;;;;;3.60;2.90;;;;;;;6.29;70.88;98123.77;103398;1294;545036;-75
2024/04/17 10:09:59;;;;;;;2.70;2.40;;;;;;;6.27;70.74;98127.33;103358;1295;544842;-75
2024/04/17 10:13:36;;;;;;;7.80;2.70;;;;;;;6.22;70.93;98129.37;103332;1294;545012;-74
2024/04/17 10:27:47;;;;;;;3.20;2.30;;;;;;;6.58;70.84;98137.42;104147;1285;555177;-75
2024/04/17 10:30:36;;;;;;;2.70;2.40;;;;;;;6.90;70.81;98137.23;103147;1295;544966;-76
2024/04/17 10:34:19;;;;;;;2.90;2.50;;;;;;;7.03;70.75;98140.77;103677;1289;545233;-76
2024/04/17 10:37:56;;;;;;;2.50;2.30;;;;;;;6.92;70.45;98144.66;103211;1296;545335;-76
2024/04/17 10:41:38;;;;;;;5.40;2.70;;;;;;;6.78;70.63;98151.56;104029;1293;544938;-75
2024/04/17 10:45:24;;;;;;;3.10;2.40;;;;;;;6.73;70.93;98149.89;104226;1292;544783;-76
2024/04/17 10:48:58;;;;;;;3.50;3.20;;;;;;;6.76;70.91;98156.05;104281;1293;545073;-76
2024/04/17 10:52:37;;;;;;;3.60;3.30;;;;;;;6.67;70.84;98153.73;103569;1295;544952;-74
2024/04/17 10:56:16;;;;;;;2.90;2.60;;;;;;;6.61;70.98;98162.41;103340;1294;545554;-76
2024/04/17 10:59:53;;;;;;;3.30;2.40;;;;;;;6.70;71.24;98160.36;103491;1292;544931;-76
2024/04/17 11:03:32;;;;;;;2.20;1.80;;;;;;;6.69;71.00;98160.77;103436;1292;545774;-75
2024/04/17 11:07:09;;;;;;;2.60;2.40;;;;;;;6.69;70.80;98164.79;103415;1295;544720;-75
2024/04/17 11:10:54;;;;;;;3.30;2.70;;;;;;;6.70;71.00;98164.71;103213;1295;544866;-75
2024/04/17 11:14:30;;;;;;;4.00;2.50;;;;;;;6.67;70.89;98164.19;103485;1295;545054;-75
2024/04/17 11:18:09;;;;;;;2.90;2.70;;;;;;;6.67;71.12;98165.08;103435;1291;544998;-74
2024/04/17 11:21:49;;;;;;;2.90;2.50;;;;;;;6.71;70.99;98167.80;103280;1295;544737;-72
2024/04/17 11:25:21;;;;;;;2.60;2.40;;;;;;;6.73;70.71;98166.33;103221;1294;544846;-77
2024/04/17 11:29:05;;;;;;;2.80;2.60;;;;;;;6.76;70.88;98172.63;103317;1295;545443;-78
2024/04/17 11:32:42;;;;;;;3.00;2.80;;;;;;;6.80;70.97;98168.75;104065;1294;545478;-83
2024/04/17 11:36:20;;;;;;;6.10;4.10;;;;;;;7.12;71.14;98165.93;103221;1292;544900;-81
2024/04/17 11:39:57;;;;;;;4.20;2.60;;;;;;;7.33;71.00;98170.55;103361;1296;544777;-82
2024/04/17 11:43:36;;;;;;;3.40;3.10;;;;;;;7.34;70.35;98176.77;103348;1296;545061;-80
2024/04/17 11:47:15;;;;;;;3.10;2.90;;;;;;;7.34;70.58;98183.27;103434;1292;544769;-79
2024/04/17 11:51:02;;;;;;;4.30;3.10;;;;;;;7.26;70.49;98182.48;104072;1297;545908;-82
2024/04/17 11:54:39;;;;;;;3.80;3.50;;;;;;;7.14;70.62;98181.55;103739;1296;544825;-80
2024/04/17 11:58:32;;;;;;;2.60;2.40;;;;;;;7.33;70.95;98185.77;103312;1298;552951;-77
2024/04/17 12:01:53;;;;;;;2.80;2.30;;;;;;;7.53;70.86;98188.48;103118;1298;544804;-76
2024/04/17 12:05:28;;;;;;;2.00;1.90;;;;;;;7.88;71.06;98183.38;103011;1295;545265;-76
2024/04/17 12:09:06;;;;;;;3.90;3.50;;;;;;;8.13;70.69;98183.13;103258;1314;544893;-77
2024/04/17 12:12:48;;;;;;;3.70;3.20;;;;;;;8.39;70.56;98182.27;103089;1299;544974;-79
2024/04/17 12:16:24;;;;;;;3.00;2.70;;;;;;;8.49;69.69;98185.37;103187;1295;546023;-77
2024/04/17 12:19:59;;;;;;;3.30;3.00;;;;;;;8.46;70.03;98184.48;103096;1296;544759;-78
2024/04/17 12:34:04;;;;;;;2.30;2.10;;;;;;;8.48;69.51;98192.93;104777;1289;554415;-85
2024/04/17 12:36:52;;;;;;;4.70;2.50;;;;;;;8.37;69.81;98193.61;104701;1306;544658;-84
2024/04/17 12:40:35;;;;;;;2.70;2.50;;;;;;;8.39;69.58;98192.63;103780;1295;544772;-82
2024/04/17 12:44:10;;;;;;;3.70;2.70;;;;;;;8.45;69.54;98191.05;103728;1294;544912;-83
2024/04/17 12:47:54;;;;;;;7.60;5.90;;;;;;;8.35;69.58;98189.17;103744;1295;544830;-86
2024/04/17 12:51:28;;;;;;;4.60;3.60;;;;;;;8.45;70.21;98185.09;105596;1285;545162;-88
2024/04/17 12:55:11;;;;;;;4.00;2.80;;;;;;;8.58;69.62;98181.81;104755;1290;545055;-82
2024/04/17 12:58:48;;;;;;;2.90;2.50;;;;;;;8.51;69.62;98185.95;104515;1307;544837;-85
2024/04/17 13:02:34;;;;;;;2.40;2.20;;;;;;;8.43;69.20;98187.15;104695;1286;545453;-82
2024/04/17 13:06:04;;;;;;;3.00;2.70;;;;;;;8.49;69.70;98180.31;103675;1292;544899;-83
2024/04/17 13:09:41;;;;;;;3.00;2.60;;;;;;;8.80;69.41;98179.13;103754;1315;545636;-81
2024/04/17 13:13:23;;;;;;;2.40;2.20;;;;;;;8.81;68.73;98186.94;103312;1292;545439;-81
2024/04/17 13:17:01;;;;;;;2.70;2.50;;;;;;;8.70;68.88;98187.77;103311;1296;545466;-79
2024/04/17 13:20:39;;;;;;;3.00;2.60;;;;;;;8.76;68.92;98189.88;103619;1295;544796;-80
2024/04/17 13:24:19;;;;;;;3.00;2.70;;;;;;;8.57;68.64;98188.91;103975;1293;545769;-87
2024/04/17 13:27:54;;;;;;;4.30;3.50;;;;;;;8.56;68.84;98194.92;104901;1295;545180;-87
2024/04/17 13:31:32;;;;;;;5.80;3.90;;;;;;;8.63;68.75;98189.77;104855;1286;544840;-80
2024/04/17 13:35:10;;;;;;;4.40;2.70;;;;;;;8.61;68.64;98190.95;103778;1293;545893;-85
2024/04/17 13:38:49;;;;;;;5.10;2.50;;;;;;;8.61;68.51;98184.83;104796;1292;545064;-79
2024/04/17 13:42:25;;;;;;;3.50;2.70;;;;;;;8.73;68.40;98189.53;103053;1298;544862;-76
2024/04/17 13:46:09;;;;;;;5.20;2.80;;;;;;;8.90;67.96;98193.36;103134;1295;545465;-76
2024/04/17 13:49:40;;;;;;;8.20;4.90;;;;;;;8.73;67.34;98188.41;103308;1293;545368;-74
2024/04/17 13:53:18;;;;;;;8.40;4.00;;;;;;;8.48;67.12;98193.31;103360;1289;545700;-76
2024/04/17 13:56:58;;;;;;;3.70;1.60;;;;;;;8.33;66.76;98196.28;103208;1295;545026;-77
2024/04/17 14:00:36;;;;;;;7.40;2.80;;;;;;;8.22;67.04;98184.56;103095;1299;545768;-78
2024/04/17 14:04:25;;;;;;;4.20;2.50;;;;;;;8.27;67.45;98198.23;103775;1295;549957;-78
2024/04/17 14:07:52;;;;;;;5.50;3.90;;;;;;;8.25;67.55;98194.86;103838;1294;544863;-77
2024/04/17 14:11:31;;;;;;;4.40;2.90;;;;;;;8.23;67.61;98192.92;103480;1292;545057;-76
2024/04/17 14:15:03;;;;;;;2.60;2.00;;;;;;;8.22;67.33;98193.98;103447;1296;544788;-78
2024/04/17 14:18:45;;;;;;;2.30;2.00;;;;;;;8.20;67.08;98186.92;103388;1294;545299;-77
2024/04/17 14:22:23;;;;;;;2.20;2.00;;;;;;;8.21;67.24;98190.38;103307;1292;544757;-76
2024/04/17 14:26:02;;;;;;;6.80;2.40;;;;;;;8.33;67.38;98197.19;105130;1298;545119;-84
2024/04/17 14:29:51;;;;;;;2.70;2.50;;;;;;;8.34;67.06;98196.80;104120;1292;549182;-81
2024/04/17 14:33:16;;;;;;;3.30;2.80;;;;;;;8.36;67.40;98194.89;104349;1296;544839;-82
2024/04/17 14:36:54;;;;;;;3.70;3.10;;;;;;;8.50;67.13;98192.11;103649;1292;544798;-83
2024/04/17 14:40:34;;;;;;;3.90;2.80;;;;;;;8.56;66.66;98188.63;103527;1295;545488;-76
2024/04/17 14:44:09;;;;;;;3.40;2.50;;;;;;;8.43;66.28;98187.81;103115;1295;544750;-77
2024/04/17 14:47:47;;;;;;;4.90;3.90;;;;;;;8.60;66.73;98186.29;103168;1295;544833;-77
2024/04/17 14:51:26;;;;;;;3.20;2.80;;;;;;;8.77;66.44;98182.60;103251;1308;544797;-77
2024/04/17 14:55:00;;;;;;;4.10;2.00;;;;;;;8.72;66.15;98187.45;103221;1297;544862;-78
2024/04/17 14:58:42;;;;;;;2.80;2.20;;;;;;;8.75;66.31;98184.31;103265;1296;544807;-78
2024/04/17 15:02:20;;;;;;;3.70;2.40;;;;;;;8.91;66.35;98184.40;103336;1292;544767;-79
2024/04/17 15:06:09;;;;;;;3.80;2.00;;;;;;;8.92;66.01;98189.23;103313;1299;544751;-77
2024/04/17 15:09:33;;;;;;;3.30;2.10;;;;;;;8.79;65.69;98185.09;103497;1295;544948;-77
2024/04/17 15:13:15;;;;;;;1.80;1.60;;;;;;;8.78;65.40;98179.89;103579;1293;544806;-77
2024/04/17 15:16:53;;;;;;;1.90;1.70;;;;;;;8.73;65.04;98184.63;103453;1293;545421;-77
2024/04/17 15:20:33;;;;;;;3.30;1.70;;;;;;;8.72;65.09;98183.94;103506;1295;545875;-77
2024/04/17 15:24:14;;;;;;;2.60;1.40;;;;;;;8.84;64.69;98182.88;103200;1298;544945;-79
2024/04/17 15:27:47;;;;;;;1.70;1.40;;;;;;;9.01;64.56;98179.54;103281;1292;545137;-77
2024/04/17 15:31:28;;;;;;;2.30;2.00;;;;;;;9.02;63.89;98182.83;103185;1294;546057;-78
2024/04/17 15:35:02;;;;;;;2.80;2.10;;;;;;;8.97;64.17;98180.89;103510;1295;544880;-76
2024/04/17 15:38:40;;;;;;;2.90;1.90;;;;;;;9.04;64.01;98184.31;103262;1296;544888;-77
2024/04/17 15:52:44;;;;;;;5.40;3.10;;;;;;;9.24;63.70;98175.99;104208;1288;554193;-76
2024/04/17 15:55:33;;;;;;;2.70;1.80;;;;;;;9.35;63.48;98169.17;103274;1295;544578;-77
2024/04/17 15:59:16;;;;;;;4.10;2.40;;;;;;;9.37;63.14;98175.53;103194;1294;544957;-75
2024/04/17 16:02:53;;;;;;;3.10;1.80;;;;;;;9.34;62.73;98177.61;103197;1295;545909;-77
2024/04/17 16:16:56;;;;;;;2.20;1.50;;;;;;;9.37;62.94;98172.34;104599;1286;553674;-82
2024/04/17 16:19:46;;;;;;;2.30;1.70;;;;;;;9.34;62.60;98172.55;103367;1295;544997;-81
2024/04/17 16:23:27;;;;;;;2.80;1.80;;;;;;;9.25;62.70;98178.71;103575;1292;544912;-82
2024/04/17 16:27:22;;;;;;;1.70;1.60;;;;;;;9.21;62.64;98178.15;104092;1294;550802;-80
2024/04/17 16:30:40;;;;;;;3.00;2.10;;;;;;;9.11;62.64;98186.64;103760;1303;546547;-81
2024/04/17 16:34:15;;;;;;;2.30;2.00;;;;;;;8.86;62.24;98190.48;103586;1294;544944;-82
2024/04/17 16:37:59;;;;;;;2.50;1.80;;;;;;;8.64;62.56;98196.38;104201;1292;545927;-80
2024/04/17 16:41:34;;;;;;;4.00;1.70;;;;;;;8.52;62.52;98197.08;103312;1295;545254;-81
2024/04/17 16:45:13;;;;;;;5.60;4.00;;;;;;;8.43;62.75;98199.05;104148;1292;545764;-81
2024/04/17 16:48:50;;;;;;;3.00;2.60;;;;;;;8.40;62.68;98199.93;103630;1295;544885;-81
2024/04/17 16:52:30;;;;;;;3.90;2.90;;;;;;;8.37;62.79;98206.77;103397;1293;545068;-81
2024/04/17 16:56:07;;;;;;;5.50;3.60;;;;;;;8.27;62.90;98209.27;103869;1298;545045;-80
2024/04/17 16:59:47;;;;;;;5.00;3.50;;;;;;;8.19;62.92;98213.27;103711;1295;544715;-80
2024/04/17 17:03:22;;;;;;;10.80;4.80;;;;;;;8.12;63.11;98214.70;104144;1292;544976;-82
2024/04/17 17:07:00;;;;;;;19.50;9.50;;;;;;;8.10;63.04;98217.47;103779;1294;545518;-81
2024/04/17 17:10:36;;;;;;;19.00;10.20;;;;;;;8.06;62.99;98217.66;103919;1293;544806;-81
2024/04/17 17:14:14;;;;;;;14.50;9.10;;;;;;;8.03;63.19;98222.56;103728;1293;544781;-80
2024/04/17 17:17:52;;;;;;;20.60;11.20;;;;;;;7.99;63.04;98223.52;103725;1290;545418;-80
2024/04/17 17:21:30;;;;;;;21.00;12.40;;;;;;;8.00;63.39;98225.35;103582;1295;544823;-81
2024/04/17 17:25:05;;;;;;;19.70;12.40;;;;;;;7.97;63.35;98233.08;103774;1293;544843;-80
2024/04/17 17:28:48;;;;;;;21.70;13.40;;;;;;;7.92;63.33;98237.76;103471;1293;544744;-80
2024/04/17 17:32:23;;;;;;;12.40;7.80;;;;;;;7.78;63.27;98240.27;103405;1295;544713;-80
2024/04/17 17:36:12;;;;;;;14.50;9.80;;;;;;;7.64;63.22;98242.31;103431;1292;544951;-83
2024/04/17 17:39:46;;;;;;;16.30;11.30;;;;;;;7.58;63.34;98245.94;103514;1298;545453;-81
2024/04/17 17:43:26;;;;;;;11.50;8.20;;;;;;;7.52;63.65;98253.99;103355;1295;545023;-82
2024/04/17 17:47:01;;;;;;;17.70;13.30;;;;;;;7.43;63.64;98260.75;103327;1298;544781;-81
2024/04/17 17:50:47;;;;;;;18.50;11.40;;;;;;;7.34;63.73;98260.02;103506;1292;544795;-82